Terminal Aerodrome Forecast
Issued by NWS

Current Version | Previous Version | Graphics & Text | Print | Product List | Glossary On
Versions: 1 2 3 4 5 6 7 8 9 10 11 12 13 14 15 16 17 18 19
000
FTUS41 KPBZ 271300 AAA
TAFHLG
TAF AMD
KHLG 271302Z 2713/2812 30005KT P6SM OVC015
      TEMPO 2713/2714 3SM BR
     FM271400 30005KT P6SM FEW025
     FM271500 30005KT P6SM FEW035=

USA.gov is the U.S. government's official web portal to all federal, state and local government web resources and services.